Latest Weather Observations for Fort Denison

IDN60901

Issued at 6:01 am EST Friday 26 May 2017 (issued every 10 minutes, with the page automatically refreshed every 10 minutes)

About weather observations | Map of Sydney area stations | Latest observations for Sydney area | Other Formats
Station Details ID: 066022 Name: FORT DENISON Lat: -33.86 Lon: 151.23 Height: 5.0 m
Data from the previous 72 hours. | See also: Recent months for locations in New South Wales
Date/Time
EST
Temp
°C
App
Temp
°C
Dew
Point
°C
Rel
Hum
%
Delta-T
°C
Wind Press
QNH
hPa
Press
MSL
hPa
Rain since
9am
mm
Dir  Spd
km/h
Gust
km/h
Spd
kts
Gust
kts
26/05:30am - - - - - W 19 26 10 14 - - -
26/05:00am - - - - - W 22 26 12 14 - - -
26/04:30am - - - - - W 22 26 12 14 - - -
26/04:00am - - - - - W 19 22 10 12 - - -
26/03:30am - - - - - W 19 24 10 13 - - -
26/03:00am - - - - - W 19 22 10 12 - - -
26/02:30am - - - - - W 17 20 9 11 - - -
26/02:00am - - - - - W 17 20 9 11 - - -
26/01:30am - - - - - W 13 17 7 9 - - -
26/01:00am - - - - - W 15 17 8 9 - - -
26/12:30am - - - - - W 13 17 7 9 - - -
26/12:00am - - - - - W 13 17 7 9 - - -
 
Date/Time
EST
Temp
°C
App
Temp
°C
Dew
Point
°C
Rel
Hum
%
Delta-T
°C
Wind Press
QNH
hPa
Press
MSL
hPa
Rain since
9am
mm
Dir  Spd
km/h
Gust
km/h
Spd
kts
Gust
kts
25/11:30pm - - - - - W 17 19 9 10 - - -
25/11:00pm - - - - - WNW 9 13 5 7 - - -
25/10:30pm - - - - - NW 6 7 3 4 - - -
25/10:00pm - - - - - NNW 9 11 5 6 - - -
25/09:30pm - - - - - NNW 9 11 5 6 - - -
25/09:00pm - - - - - NNW 7 9 4 5 - - -
25/08:30pm - - - - - N 6 7 3 4 - - -
25/08:00pm - - - - - NNW 4 6 2 3 - - -
25/07:30pm - - - - - N 2 4 1 2 - - -
25/07:00pm - - - - - NNW 2 4 1 2 - - -
25/06:30pm - - - - - N 4 4 2 2 - - -
25/06:00pm - - - - - NNE 6 6 3 3 - - -
25/05:30pm - - - - - NE 6 9 3 5 - - -
25/05:00pm - - - - - ENE 9 11 5 6 - - -
25/04:30pm - - - - - E 9 11 5 6 - - -
25/04:00pm - - - - - E 11 13 6 7 - - -
25/03:30pm - - - - - E 11 13 6 7 - - -
25/03:00pm - - - - - E 11 15 6 8 - - -
25/02:30pm - - - - - E 7 9 4 5 - - -
25/02:00pm - - - - - ESE 9 11 5 6 - - -
25/01:30pm - - - - - NW 4 7 2 4 - - -
25/01:00pm - - - - - WNW 7 11 4 6 - - -
25/12:30pm - - - - - WNW 11 15 6 8 - - -
25/12:00pm - - - - - WNW 11 13 6 7 - - -
25/11:30am - - - - - WNW 13 17 7 9 - - -
25/11:00am - - - - - W 15 20 8 11 - - -
25/10:30am - - - - - W 19 24 10 13 - - -
25/10:00am - - - - - W 19 24 10 13 - - -
25/09:30am - - - - - W 22 26 12 14 - - -
25/09:00am - - - - - W 22 28 12 15 - - -
25/08:30am - - - - - W 20 28 11 15 - - -
25/08:00am - - - - - W 22 30 12 16 - - -
25/07:30am - - - - - W 22 28 12 15 - - -
25/07:00am - - - - - W 26 33 14 18 - - -
25/06:30am - - - - - W 24 30 13 16 - - -
25/06:00am - - - - - W 22 26 12 14 - - -
25/05:30am - - - - - W 22 28 12 15 - - -
25/05:00am - - - - - W 24 30 13 16 - - -
25/04:30am - - - - - W 22 28 12 15 - - -
25/04:00am - - - - - W 22 28 12 15 - - -
25/03:30am - - - - - W 20 30 11 16 - - -
25/03:00am - - - - - WSW 20 30 11 16 - - -
25/02:30am - - - - - W 20 24 11 13 - - -
25/02:00am - - - - - W 17 24 9 13 - - -
25/01:30am - - - - - W 19 22 10 12 - - -
25/01:00am - - - - - W 19 24 10 13 - - -
25/12:30am - - - - - W 19 24 10 13 - - -
25/12:00am - - - - - W 22 28 12 15 - - -
 
Date/Time
EST
Temp
°C
App
Temp
°C
Dew
Point
°C
Rel
Hum
%
Delta-T
°C
Wind Press
QNH
hPa
Press
MSL
hPa
Rain since
9am
mm
Dir  Spd
km/h
Gust
km/h
Spd
kts
Gust
kts
24/11:30pm - - - - - W 20 26 11 14 - - -
24/11:00pm - - - - - W 22 28 12 15 - - -
24/10:30pm - - - - - W 22 30 12 16 - - -
24/10:00pm - - - - - W 20 26 11 14 - - -
24/09:30pm - - - - - W 22 30 12 16 - - -
24/09:00pm - - - - - W 19 24 10 13 - - -
24/08:30pm - - - - - W 15 22 8 12 - - -
24/08:00pm - - - - - W 15 19 8 10 - - -
24/07:30pm - - - - - W 15 19 8 10 - - -
24/07:00pm - - - - - W 20 26 11 14 - - -
24/06:30pm - - - - - W 19 28 10 15 - - -
24/06:00pm - - - - - WSW 28 50 15 27 - - -
24/05:30pm - - - - - WSW 28 46 15 25 - - -
24/05:29pm - - - - - WSW 28 46 15 25 - - -
24/05:00pm - - - - - WSW 20 37 11 20 - - -
24/04:30pm - - - - - WSW 24 39 13 21 - - -
24/04:00pm - - - - - WSW 28 44 15 24 - - -
24/03:50pm - - - - - WSW 28 46 15 25 - - -
24/03:30pm - - - - - W 24 41 13 22 - - -
24/03:00pm - - - - - WSW 22 37 12 20 - - -
24/02:46pm - - - - - WSW 28 46 15 25 - - -
24/02:30pm - - - - - W 28 43 15 23 - - -
24/02:20pm - - - - - WSW 28 46 15 25 - - -
24/02:00pm - - - - - WSW 28 44 15 24 - - -
24/01:30pm - - - - - W 30 41 16 22 - - -
24/01:00pm - - - - - W 24 37 13 20 - - -
24/12:30pm - - - - - WNW 13 17 7 9 - - -
24/12:00pm - - - - - W 15 19 8 10 - - -
24/11:30am - - - - - W 13 19 7 10 - - -
24/11:00am - - - - - WSW 11 22 6 12 - - -
24/10:30am - - - - - WSW 6 9 3 5 - - -
24/10:00am - - - - - SE 4 6 2 3 - - -
24/09:30am - - - - - ENE 6 7 3 4 - - -
24/09:00am - - - - - NNW 7 13 4 7 - - -
24/08:30am - - - - - NNW 15 19 8 10 - - -
24/08:00am - - - - - NE 4 6 2 3 - - -
24/07:30am - - - - - N 6 9 3 5 - - -
24/07:00am - - - - - WNW 7 11 4 6 - - -
24/06:30am - - - - - WNW 13 17 7 9 - - -
24/06:00am - - - - - NW 2 4 1 2 - - -
24/05:30am - - - - - N 4 9 2 5 - - -
24/05:00am - - - - - W 22 33 12 18 - - -
24/04:30am - - - - - WSW 33 54 18 29 - - -
24/04:18am - - - - - W 24 48 13 26 - - -
24/04:00am - - - - - WNW 9 19 5 10 - - -
24/03:30am - - - - - WNW 4 6 2 3 - - -
24/03:00am - - - - - W 9 13 5 7 - - -
24/02:30am - - - - - W 6 9 3 5 - - -
24/02:00am - - - - - NNW 4 6 2 3 - - -
24/01:30am - - - - - NW 2 4 1 2 - - -
24/01:00am - - - - - W 2 4 1 2 - - -
24/12:30am - - - - - WNW 6 7 3 4 - - -
24/12:00am - - - - - NW 4 6 2 3 - - -
 
Date/Time
EST
Temp
°C
App
Temp
°C
Dew
Point
°C
Rel
Hum
%
Delta-T
°C
Wind Press
QNH
hPa
Press
MSL
hPa
Rain since
9am
mm
Dir  Spd
km/h
Gust
km/h
Spd
kts
Gust
kts
23/11:30pm - - - - - NW 6 11 3 6 - - -
23/11:00pm - - - - - NW 9 13 5 7 - - -
23/10:30pm - - - - - NNW 7 9 4 5 - - -
23/10:00pm - - - - - NNW 13 15 7 8 - - -
23/09:30pm - - - - - NNW 13 17 7 9 - - -
23/09:00pm - - - - - N 9 11 5 6 - - -
23/08:30pm - - - - - N 13 19 7 10 - - -
23/08:00pm - - - - - N 11 17 6 9 - - -
23/07:30pm - - - - - N 9 13 5 7 - - -
23/07:00pm - - - - - NNE 11 13 6 7 - - -
23/06:30pm - - - - - NE 6 7 3 4 - - -
23/06:00pm - - - - - NNE 7 13 4 7 - - -
23/05:30pm - - - - - NNE 11 15 6 8 - - -
23/05:00pm - - - - - NNE 15 19 8 10 - - -
23/04:30pm - - - - - NE 11 17 6 9 - - -
23/04:00pm - - - - - NE 13 17 7 9 - - -
23/03:30pm - - - - - NE 13 19 7 10 - - -
23/03:00pm - - - - - ENE 17 19 9 10 - - -
23/02:30pm - - - - - ENE 17 20 9 11 - - -
23/02:00pm - - - - - NE 13 20 7 11 - - -
23/01:30pm - - - - - NE 15 22 8 12 - - -
23/01:00pm - - - - - ENE 19 20 10 11 - - -
23/12:30pm - - - - - E 19 22 10 12 - - -
23/12:00pm - - - - - E 15 17 8 9 - - -
23/11:30am - - - - - E 9 13 5 7 - - -
23/11:00am - - - - - W 4 11 2 6 - - -
23/10:30am - - - - - W 9 13 5 7 - - -
23/10:00am - - - - - W 11 15 6 8 - - -
23/09:30am - - - - - W 9 11 5 6 - - -
23/09:00am - - - - - WNW 11 13 6 7 - - -
23/08:30am - - - - - W 13 15 7 8 - - -
23/08:00am - - - - - W 11 11 6 6 - - -
23/07:30am - - - - - W 15 19 8 10 - - -
23/07:00am - - - - - W 11 15 6 8 - - -
23/06:30am - - - - - W 13 17 7 9 - - -

Latest Capital City Observations: Canberra | Sydney | Melbourne | Brisbane | Adelaide | Perth | Hobart | Darwin

Other Formats:

Comma delimited format used in spreadsheet applications
http://www.bom.gov.au/fwo/IDN60901/IDN60901.94769.axf

JavaScript Object Notation format (JSON) in row-major order
http://www.bom.gov.au/fwo/IDN60901/IDN60901.94769.json